createdAt,value
2018-03-20T00:02:19.964Z,41.33
2018-03-20T00:04:49.157Z,41.15
2018-03-20T00:07:19.178Z,39.85
2018-03-20T00:09:49.250Z,44.65
2018-03-20T00:12:18.186Z,42.67
2018-03-20T00:14:47.284Z,44.42
2018-03-20T00:17:16.478Z,41.20
2018-03-20T00:19:45.681Z,36.75
2018-03-20T00:22:15.594Z,41.13
2018-03-20T00:24:45.607Z,41.08
2018-03-20T00:27:15.017Z,39.92
2018-03-20T00:29:44.112Z,42.13
2018-03-20T00:34:47.507Z,37.00
2018-03-20T00:37:17.148Z,47.33
2018-03-20T00:39:48.645Z,40.30
2018-03-20T00:42:17.681Z,40.90
2018-03-20T00:44:46.670Z,44.40
2018-03-20T00:47:21.607Z,43.08
2018-03-20T00:49:50.706Z,40.53
2018-03-20T00:52:19.570Z,44.35
2018-03-20T00:54:51.764Z,40.55
2018-03-20T00:57:20.759Z,40.92
2018-03-20T00:59:50.497Z,39.78
2018-03-20T01:02:19.461Z,41.10
2018-03-20T01:04:48.340Z,46.35
2018-03-20T01:07:17.326Z,52.58
2018-03-20T01:09:48.087Z,51.53
2018-03-20T01:12:17.016Z,53.50
2018-03-20T01:14:45.968Z,58.97
2018-03-20T01:17:15.883Z,52.50
2018-03-20T01:19:44.824Z,46.37
2018-03-20T01:22:15.095Z,38.65
2018-03-20T01:24:44.963Z,47.17
2018-03-20T01:27:13.928Z,48.10
2018-03-20T01:29:42.829Z,47.38
2018-03-20T01:32:11.944Z,42.60
2018-03-20T01:34:41.083Z,45.90
2018-03-20T01:37:10.068Z,45.10
2018-03-20T01:39:39.072Z,39.72
2018-03-20T01:42:08.584Z,39.45
2018-03-20T01:44:37.578Z,43.15
2018-03-20T01:49:40.473Z,42.10
2018-03-20T01:52:09.470Z,44.88
2018-03-20T01:54:39.386Z,38.85
2018-03-20T01:57:08.445Z,35.47
2018-03-20T01:59:37.376Z,31.75
2018-03-20T02:02:10.846Z,30.92
2018-03-20T02:04:39.848Z,28.23
2018-03-20T02:07:08.860Z,22.85
2018-03-20T02:09:37.954Z,28.20
2018-03-20T02:12:06.982Z,23.48
2018-03-20T02:14:35.956Z,25.83
2018-03-20T02:19:38.746Z,33.75
2018-03-20T02:22:07.759Z,30.33
2018-03-20T02:24:36.915Z,30.20
2018-03-20T02:27:06.035Z,33.65
2018-03-20T02:29:35.129Z,31.17
2018-03-20T02:34:38.026Z,29.63
2018-03-20T02:37:07.125Z,33.25
2018-03-20T02:39:36.988Z,30.65
2018-03-20T02:42:05.938Z,26.80
2018-03-20T02:44:34.930Z,32.78
2018-03-20T02:49:39.364Z,33.85
2018-03-20T02:52:09.280Z,38.03
2018-03-20T02:54:40.120Z,38.75
2018-03-20T02:57:09.934Z,32.65
2018-03-20T02:59:38.957Z,35.55
2018-03-20T03:02:10.491Z,29.75
2018-03-20T03:04:39.506Z,27.85
2018-03-20T03:07:08.469Z,26.77
2018-03-20T03:09:40.120Z,28.85
2018-03-20T03:12:10.168Z,30.55
2018-03-20T03:14:39.065Z,27.58
2018-03-20T03:17:08.085Z,32.10
2018-03-20T03:19:37.117Z,33.42
2018-03-20T03:22:06.868Z,33.78
2018-03-20T03:24:36.750Z,39.20
2018-03-20T03:27:07.842Z,45.05
2018-03-20T03:29:36.833Z,44.42
2018-03-20T03:32:07.841Z,45.70
2018-03-20T03:34:36.820Z,55.33
2018-03-20T03:37:06.731Z,49.35
2018-03-20T03:39:36.626Z,46.25
2018-03-20T03:42:06.699Z,49.28
2018-03-20T03:44:35.656Z,51.33
2018-03-20T03:47:04.887Z,47.35
2018-03-20T03:49:34.875Z,52.65
2018-03-20T03:52:03.848Z,64.28
2018-03-20T03:54:33.920Z,56.42
2018-03-20T03:57:02.882Z,51.03
2018-03-20T03:59:31.874Z,61.00
2018-03-20T04:02:01.722Z,68.95
2018-03-20T04:04:30.698Z,108.40
2018-03-20T04:06:59.711Z,52.20
2018-03-20T04:09:29.320Z,71.93
2018-03-20T04:11:58.383Z,61.93
2018-03-20T04:14:27.677Z,60.85
2018-03-20T04:16:57.597Z,51.60
2018-03-20T04:19:26.691Z,64.00
2018-03-20T04:21:56.508Z,55.43
2018-03-20T04:24:25.608Z,58.50
2018-03-20T04:26:54.803Z,55.38
2018-03-20T04:29:24.714Z,60.22
2018-03-20T04:31:54.512Z,49.63
2018-03-20T04:34:23.725Z,41.00
2018-03-20T04:36:52.718Z,45.87
2018-03-20T04:39:21.811Z,43.42
2018-03-20T04:41:50.750Z,57.25
2018-03-20T04:44:19.913Z,39.85
2018-03-20T04:46:49.961Z,35.27
2018-03-20T04:49:19.631Z,29.20
2018-03-20T04:51:48.730Z,42.13
2018-03-20T04:54:17.833Z,30.53
2018-03-20T04:56:46.761Z,34.40
2018-03-20T04:59:17.404Z,33.08
2018-03-20T05:01:47.441Z,30.45
2018-03-20T05:04:16.565Z,26.02
2018-03-20T05:06:45.509Z,28.97
2018-03-20T05:11:48.995Z,24.33
2018-03-20T05:14:17.903Z,22.62
2018-03-20T05:16:48.978Z,19.17
2018-03-20T05:19:32.849Z,17.45
2018-03-20T05:22:10.445Z,17.47
2018-03-20T05:24:39.534Z,21.80
2018-03-20T05:27:08.894Z,17.87
2018-03-20T05:32:12.212Z,11.15
2018-03-20T05:34:41.662Z,15.45
2018-03-20T05:37:16.247Z,31.33
2018-03-20T05:39:45.327Z,16.70
2018-03-20T05:42:14.416Z,7.87
2018-03-20T05:44:43.616Z,9.52
2018-03-20T05:47:13.316Z,11.03
2018-03-20T05:49:47.712Z,11.70
2018-03-20T05:52:17.555Z,9.27
2018-03-20T05:54:46.544Z,7.40
2018-03-20T05:57:16.426Z,7.20
2018-03-20T05:59:46.348Z,7.37
2018-03-20T06:02:15.372Z,9.45
2018-03-20T06:04:46.065Z,9.02
2018-03-20T06:07:15.064Z,6.70
2018-03-20T06:09:44.825Z,10.63
2018-03-20T06:14:48.691Z,6.82
2018-03-20T06:17:17.705Z,4.78
2018-03-20T06:19:47.715Z,3.90
2018-03-20T06:22:16.912Z,4.22
2018-03-20T06:24:45.803Z,4.28
2018-03-20T06:27:14.795Z,3.00
2018-03-20T06:29:44.064Z,2.90
2018-03-20T06:32:12.993Z,2.60
2018-03-20T06:34:44.441Z,3.50
2018-03-20T06:37:13.664Z,2.47
2018-03-20T06:39:42.834Z,3.83
2018-03-20T06:42:11.910Z,3.33
2018-03-20T06:44:41.377Z,3.30
2018-03-20T06:47:10.436Z,4.70
2018-03-20T06:49:45.978Z,2.65
2018-03-20T06:52:14.983Z,3.62
2018-03-20T06:54:43.967Z,2.87
2018-03-20T06:57:18.039Z,3.85
2018-03-20T06:59:47.077Z,3.67
2018-03-20T07:02:16.279Z,4.82
2018-03-20T07:04:45.311Z,4.05
2018-03-20T07:07:14.405Z,4.72
2018-03-20T07:09:43.316Z,3.87
2018-03-20T07:12:14.711Z,3.97
2018-03-20T07:14:45.028Z,4.85
2018-03-20T07:17:14.428Z,4.07
2018-03-20T07:19:45.767Z,4.50
2018-03-20T07:22:15.662Z,6.12
2018-03-20T07:24:44.570Z,4.50
2018-03-20T07:27:13.557Z,8.20
2018-03-20T07:29:42.575Z,4.05
2018-03-20T07:32:11.676Z,2.95
2018-03-20T07:34:41.519Z,4.35
2018-03-20T07:37:12.121Z,2.70
2018-03-20T07:39:41.011Z,2.58
2018-03-20T07:42:10.983Z,2.60
2018-03-20T07:44:40.034Z,2.10
2018-03-20T07:47:09.019Z,2.35
2018-03-20T07:52:12.949Z,2.30
2018-03-20T07:54:41.940Z,2.17
2018-03-20T07:57:11.917Z,3.35
2018-03-20T07:59:40.953Z,2.53
2018-03-20T08:02:09.878Z,2.42
2018-03-20T08:04:39.077Z,2.83
2018-03-20T08:07:08.654Z,4.30
2018-03-20T08:09:37.957Z,6.05
2018-03-20T08:12:07.138Z,8.00
2018-03-20T08:14:36.042Z,10.07
2018-03-20T08:17:05.034Z,16.25
2018-03-20T08:19:34.952Z,16.15
2018-03-20T08:22:03.989Z,16.77
2018-03-20T08:24:32.947Z,13.05
2018-03-20T08:27:04.401Z,15.45
2018-03-20T08:29:33.592Z,18.08
2018-03-20T08:32:02.582Z,15.63
2018-03-20T08:34:33.260Z,18.12
2018-03-20T08:37:02.416Z,16.33
2018-03-20T08:39:31.379Z,13.27
2018-03-20T08:42:02.245Z,14.30
2018-03-20T08:44:31.236Z,12.07
2018-03-20T08:47:00.197Z,10.73
2018-03-20T08:49:33.093Z,8.18
2018-03-20T08:52:02.205Z,8.30
2018-03-20T08:54:31.111Z,11.95
2018-03-20T08:57:00.184Z,10.68
2018-03-20T08:59:29.058Z,10.48
2018-03-20T09:01:58.599Z,6.53
2018-03-20T09:04:29.363Z,18.23
2018-03-20T09:06:58.520Z,8.80
2018-03-20T09:09:28.958Z,10.95
2018-03-20T09:11:59.678Z,10.05
2018-03-20T09:14:28.693Z,10.20
2018-03-20T09:16:57.787Z,9.50
2018-03-20T09:19:26.812Z,10.13
2018-03-20T09:21:55.968Z,7.60
2018-03-20T09:24:24.961Z,8.80
2018-03-20T09:26:54.786Z,8.40
2018-03-20T09:29:25.408Z,9.68
2018-03-20T09:31:57.177Z,6.70
2018-03-20T09:34:26.168Z,7.47
2018-03-20T09:36:55.168Z,8.18
2018-03-20T09:39:26.823Z,8.95
2018-03-20T09:41:57.252Z,10.10
2018-03-20T09:44:26.317Z,9.45
2018-03-20T09:46:58.842Z,8.63
2018-03-20T09:49:28.264Z,10.20
2018-03-20T09:51:58.182Z,10.40
2018-03-20T09:54:27.476Z,9.02
2018-03-20T09:56:56.532Z,11.02
2018-03-20T09:59:25.531Z,14.10
2018-03-20T10:01:54.526Z,9.55
2018-03-20T10:04:23.420Z,9.20
2018-03-20T10:06:52.493Z,11.00
2018-03-20T10:09:21.506Z,8.60
2018-03-20T10:11:50.605Z,13.05
2018-03-20T10:14:20.520Z,13.07
2018-03-20T10:16:49.614Z,7.43
2018-03-20T10:19:18.608Z,7.65
2018-03-20T10:21:47.496Z,15.70
2018-03-20T10:24:16.527Z,10.40
2018-03-20T10:26:45.659Z,10.45
2018-03-20T10:29:14.585Z,9.50
2018-03-20T10:31:43.683Z,9.20
2018-03-20T10:34:12.784Z,9.75
2018-03-20T10:36:41.725Z,9.77
2018-03-20T10:39:11.687Z,10.00
2018-03-20T10:41:40.692Z,11.52
2018-03-20T10:44:09.876Z,11.68
2018-03-20T10:46:39.934Z,10.68
2018-03-20T10:49:09.921Z,13.20
2018-03-20T10:51:39.017Z,11.52
2018-03-20T10:54:08.283Z,10.35
2018-03-20T10:56:49.023Z,10.45
2018-03-20T10:59:18.072Z,12.65
2018-03-20T11:01:47.278Z,9.27
2018-03-20T11:04:16.372Z,9.15
2018-03-20T11:06:46.901Z,9.60
2018-03-20T11:09:15.834Z,8.98
2018-03-20T11:11:44.889Z,8.80
2018-03-20T11:14:14.765Z,12.45
2018-03-20T11:16:43.692Z,10.90
2018-03-20T11:19:12.690Z,14.52
2018-03-20T11:21:42.501Z,11.60
2018-03-20T11:24:11.574Z,12.35
2018-03-20T11:26:41.523Z,12.80
2018-03-20T11:29:10.661Z,10.10
2018-03-20T11:31:40.526Z,10.23
2018-03-20T11:34:09.627Z,11.12
2018-03-20T11:36:39.540Z,12.23
2018-03-20T11:39:09.356Z,20.45
2018-03-20T11:41:39.584Z,19.33
2018-03-20T11:44:08.777Z,15.70
2018-03-20T11:46:38.591Z,18.23
2018-03-20T11:49:07.586Z,16.73
2018-03-20T11:54:15.044Z,12.60
2018-03-20T11:56:44.068Z,16.60
2018-03-20T11:59:13.093Z,12.18
2018-03-20T12:01:42.178Z,11.35
2018-03-20T12:04:11.272Z,10.38
2018-03-20T12:06:40.162Z,10.95
2018-03-20T12:09:34.452Z,15.23
2018-03-20T12:12:04.368Z,13.62
2018-03-20T12:14:33.371Z,15.32
2018-03-20T12:17:04.231Z,14.73
2018-03-20T12:19:34.136Z,16.17
2018-03-20T12:22:03.202Z,15.80
2018-03-20T12:24:32.431Z,12.35
2018-03-20T12:27:01.918Z,27.37
2018-03-20T12:29:31.721Z,34.67
2018-03-20T12:34:35.425Z,30.23
2018-03-20T12:37:04.445Z,23.98
2018-03-20T12:39:33.329Z,15.23
2018-03-20T12:42:04.271Z,19.12
2018-03-20T12:44:33.978Z,15.07
2018-03-20T12:47:03.691Z,13.05
2018-03-20T12:49:33.611Z,12.90
2018-03-20T12:52:02.533Z,12.52
2018-03-20T12:54:31.497Z,12.95
2018-03-20T12:57:01.418Z,10.15
2018-03-20T12:59:30.549Z,16.17
2018-03-20T13:01:59.531Z,22.35
2018-03-20T13:04:28.494Z,15.50
2018-03-20T13:06:57.589Z,19.00
2018-03-20T13:09:26.585Z,16.75
2018-03-20T13:11:57.324Z,20.83
2018-03-20T13:14:27.136Z,20.15
2018-03-20T13:16:56.340Z,20.55
2018-03-20T13:19:27.242Z,14.95
2018-03-20T13:21:57.399Z,14.80
2018-03-20T13:24:27.690Z,12.52
2018-03-20T13:29:31.103Z,11.23
2018-03-20T13:32:00.303Z,10.80
2018-03-20T13:34:29.397Z,10.60
2018-03-20T13:36:58.387Z,11.68
2018-03-20T13:39:27.523Z,11.68
2018-03-20T13:41:57.490Z,9.88
2018-03-20T13:44:26.602Z,9.07
2018-03-20T13:46:56.465Z,12.73
2018-03-20T13:49:27.094Z,12.23
2018-03-20T13:51:56.040Z,10.02
2018-03-20T13:54:25.083Z,9.73
2018-03-20T13:56:54.084Z,9.40
2018-03-20T13:59:23.049Z,12.20
2018-03-20T14:01:52.016Z,12.50
2018-03-20T14:04:21.009Z,9.90
2018-03-20T14:06:51.028Z,10.40
2018-03-20T14:09:19.958Z,12.70
2018-03-20T14:11:49.900Z,14.95
2018-03-20T14:14:18.866Z,15.27
2018-03-20T14:16:47.963Z,13.23
2018-03-20T14:19:17.019Z,13.62
2018-03-20T14:21:45.910Z,12.57
2018-03-20T14:24:14.995Z,12.55
2018-03-20T14:26:44.106Z,12.57
2018-03-20T14:29:13.725Z,13.10
2018-03-20T14:31:42.893Z,12.73
2018-03-20T14:34:12.007Z,10.57
2018-03-20T14:36:40.937Z,11.52
2018-03-20T14:39:09.909Z,14.82
2018-03-20T14:41:39.907Z,12.65
2018-03-20T14:44:08.904Z,13.57
2018-03-20T14:46:37.998Z,13.52
2018-03-20T14:49:07.172Z,16.52
2018-03-20T14:51:36.233Z,14.95
2018-03-20T14:54:06.214Z,13.20
2018-03-20T14:56:35.306Z,15.38
2018-03-20T14:59:04.410Z,13.10
2018-03-20T15:01:34.830Z,14.87
2018-03-20T15:04:03.960Z,11.30
2018-03-20T15:06:33.489Z,13.30
2018-03-20T15:09:02.526Z,14.87
2018-03-20T15:11:31.627Z,15.95
2018-03-20T15:14:01.476Z,11.43
2018-03-20T15:16:30.532Z,14.80
2018-03-20T15:19:02.498Z,14.52
2018-03-20T15:21:31.633Z,13.27
2018-03-20T15:24:00.628Z,15.13
2018-03-20T15:29:03.661Z,28.17
2018-03-20T15:31:32.596Z,16.95
2018-03-20T15:34:04.488Z,14.32
2018-03-20T15:36:33.546Z,13.40
2018-03-20T15:39:02.580Z,13.73
2018-03-20T15:41:34.402Z,14.23
2018-03-20T15:44:03.499Z,14.52
2018-03-20T15:46:32.492Z,14.50
2018-03-20T15:51:37.801Z,15.98
2018-03-20T15:54:06.693Z,15.57
2018-03-20T15:56:35.947Z,15.00
2018-03-20T16:01:39.064Z,16.23
2018-03-20T16:04:08.063Z,14.87
2018-03-20T16:06:37.947Z,16.92
2018-03-20T16:09:08.116Z,18.48
2018-03-20T16:11:37.098Z,17.35
2018-03-20T16:14:07.957Z,16.35
2018-03-20T16:16:37.126Z,17.77
2018-03-20T16:19:06.340Z,24.67
2018-03-20T16:21:36.281Z,17.05
2018-03-20T16:24:05.444Z,19.27
2018-03-20T16:26:34.448Z,14.85
2018-03-20T16:29:05.381Z,20.27
2018-03-20T16:31:35.110Z,18.50
2018-03-20T16:34:05.631Z,21.25
2018-03-20T16:36:35.114Z,18.25
2018-03-20T16:39:04.219Z,20.85
2018-03-20T16:41:34.426Z,22.52
2018-03-20T16:44:04.097Z,19.08
2018-03-20T16:46:33.154Z,23.83
2018-03-20T16:49:06.443Z,19.62
2018-03-20T16:51:35.490Z,17.67
2018-03-20T16:54:05.816Z,21.23
2018-03-20T16:56:34.892Z,23.85
2018-03-20T16:59:03.884Z,19.45
2018-03-20T17:01:34.004Z,25.62
2018-03-20T17:04:03.454Z,21.35
2018-03-20T17:06:33.400Z,21.12
2018-03-20T17:09:02.827Z,23.15
2018-03-20T17:11:34.300Z,20.52
2018-03-20T17:14:03.245Z,19.67
2018-03-20T17:16:35.005Z,21.05
2018-03-20T17:21:38.216Z,19.62
2018-03-20T17:24:07.207Z,20.98
2018-03-20T17:26:36.257Z,21.62
2018-03-20T17:29:05.309Z,21.15
2018-03-20T17:31:35.772Z,16.33
2018-03-20T17:34:04.981Z,15.57
2018-03-20T17:36:34.498Z,19.40
2018-03-20T17:39:03.695Z,21.92
2018-03-20T17:41:32.872Z,20.10
2018-03-20T17:44:02.375Z,24.77
2018-03-20T17:46:32.647Z,29.73
2018-03-20T17:49:03.250Z,24.45
2018-03-20T17:51:32.180Z,23.65
2018-03-20T17:54:02.203Z,25.92
2018-03-20T17:56:32.116Z,32.13
2018-03-20T17:59:01.729Z,26.83
2018-03-20T18:01:30.923Z,26.92
2018-03-20T18:04:00.105Z,41.28
2018-03-20T18:06:30.080Z,27.48
2018-03-20T18:08:59.140Z,29.77
2018-03-20T18:11:28.161Z,25.85
2018-03-20T18:13:57.271Z,23.98
2018-03-20T18:16:27.126Z,26.25
2018-03-20T18:18:59.299Z,22.37
2018-03-20T18:21:28.505Z,23.95
2018-03-20T18:24:01.208Z,22.33
2018-03-20T18:26:31.309Z,20.42
2018-03-20T18:29:00.505Z,21.00
2018-03-20T18:31:30.728Z,22.33
2018-03-20T18:34:00.743Z,22.87
2018-03-20T18:36:29.689Z,19.40
2018-03-20T18:39:00.003Z,22.50
2018-03-20T18:41:29.102Z,21.52
2018-03-20T18:43:59.177Z,22.13
2018-03-20T18:46:28.379Z,23.52
2018-03-20T18:48:58.507Z,21.20
2018-03-20T18:51:27.393Z,22.23
2018-03-20T18:53:56.487Z,26.27
2018-03-20T18:56:25.601Z,21.80
2018-03-20T18:58:55.501Z,21.55
2018-03-20T19:01:29.001Z,20.80
2018-03-20T19:03:57.996Z,33.45
2018-03-20T19:06:27.091Z,35.47
2018-03-20T19:08:57.529Z,28.73
2018-03-20T19:11:26.525Z,19.23
2018-03-20T19:13:57.555Z,25.50
2018-03-20T19:16:26.657Z,19.87
2018-03-20T19:18:56.261Z,21.42
2018-03-20T19:21:25.493Z,22.37
2018-03-20T19:23:54.751Z,28.42
2018-03-20T19:26:23.739Z,24.63
2018-03-20T19:28:53.566Z,20.35
2018-03-20T19:31:22.873Z,12.35
2018-03-20T19:33:51.964Z,9.70
2018-03-20T19:36:20.991Z,7.90
2018-03-20T19:38:51.143Z,6.50
2018-03-20T19:41:20.541Z,6.50
2018-03-20T19:43:49.710Z,5.53
2018-03-20T19:46:19.302Z,6.22
2018-03-20T19:48:49.394Z,5.18
2018-03-20T19:51:20.098Z,18.17
2018-03-20T19:53:49.460Z,24.92
2018-03-20T19:56:18.653Z,29.98
2018-03-20T19:58:47.933Z,38.75
2018-03-20T20:01:17.857Z,32.00
2018-03-20T20:03:47.178Z,38.20
2018-03-20T20:06:16.275Z,28.98
2018-03-20T20:08:47.830Z,33.60
2018-03-20T20:11:17.717Z,24.00
2018-03-20T20:13:46.840Z,19.37
2018-03-20T20:18:50.674Z,22.83
2018-03-20T20:21:19.683Z,37.08
2018-03-20T20:23:48.576Z,41.20
2018-03-20T20:26:17.696Z,38.08
2018-03-20T20:28:47.784Z,45.95
2018-03-20T20:31:16.849Z,49.00
2018-03-20T20:33:45.839Z,47.38
2018-03-20T20:36:14.804Z,46.78
2018-03-20T20:38:45.191Z,36.92
2018-03-20T20:41:15.669Z,41.15
2018-03-20T20:43:44.812Z,42.65
2018-03-20T20:46:15.090Z,36.70
2018-03-20T20:48:44.412Z,37.45
2018-03-20T20:51:13.605Z,40.45
2018-03-20T20:53:44.279Z,32.13
2018-03-20T20:56:13.744Z,29.87
2018-03-20T20:58:42.999Z,27.50
2018-03-20T21:01:12.154Z,26.62
2018-03-20T21:03:41.208Z,28.12
2018-03-20T21:06:10.232Z,33.75
2018-03-20T21:08:39.229Z,30.80
2018-03-20T21:11:08.344Z,44.92
2018-03-20T21:13:37.421Z,33.25
2018-03-20T21:16:06.731Z,31.98
2018-03-20T21:18:37.555Z,26.50
2018-03-20T21:21:06.553Z,31.10
2018-03-20T21:23:35.648Z,29.08
2018-03-20T21:26:05.703Z,28.70
2018-03-20T21:28:34.867Z,24.85
2018-03-20T21:31:03.856Z,18.33
2018-03-20T21:33:32.955Z,18.37
2018-03-20T21:36:01.988Z,17.20
2018-03-20T21:38:31.016Z,21.62
2018-03-20T21:40:59.997Z,16.60
2018-03-20T21:43:29.007Z,22.73
2018-03-20T21:45:58.023Z,13.45
2018-03-20T21:51:02.148Z,9.05
2018-03-20T21:53:31.276Z,8.77
2018-03-20T21:56:00.308Z,12.80
2018-03-20T21:58:29.385Z,10.40
2018-03-20T22:00:58.474Z,15.75
2018-03-20T22:06:02.158Z,20.60
2018-03-20T22:08:31.250Z,21.58
2018-03-20T22:11:04.451Z,19.67
2018-03-20T22:13:34.365Z,21.67
2018-03-20T22:16:03.395Z,19.95
2018-03-20T22:18:32.640Z,21.58
2018-03-20T22:21:03.249Z,20.50
2018-03-20T22:23:32.241Z,20.00
2018-03-20T22:26:03.056Z,16.05
2018-03-20T22:28:32.215Z,20.15
2018-03-20T22:31:01.979Z,24.40
2018-03-20T22:36:07.561Z,26.75
2018-03-20T22:38:36.790Z,26.65
2018-03-20T22:41:05.884Z,25.48
2018-03-20T22:43:36.602Z,23.23
2018-03-20T22:46:05.607Z,23.10
2018-03-20T22:48:33.999Z,21.05
2018-03-20T22:51:02.681Z,22.55
2018-03-20T22:53:32.428Z,26.70
2018-03-20T22:56:01.390Z,28.30
2018-03-20T22:58:30.487Z,26.77
2018-03-20T23:01:00.037Z,24.20
2018-03-20T23:03:28.847Z,27.23
2018-03-20T23:06:04.635Z,30.33
2018-03-20T23:08:33.674Z,31.42
2018-03-20T23:11:02.826Z,29.20
2018-03-20T23:16:05.924Z,34.70
2018-03-20T23:18:34.920Z,27.27
2018-03-20T23:21:05.759Z,28.20
2018-03-20T23:23:34.853Z,28.77
2018-03-20T23:26:04.632Z,22.50
2018-03-20T23:28:34.345Z,22.00
2018-03-20T23:31:03.602Z,26.70
2018-03-20T23:33:33.482Z,21.90
2018-03-20T23:36:02.658Z,21.20
2018-03-20T23:38:31.631Z,22.30
2018-03-20T23:41:00.881Z,22.02
2018-03-20T23:43:32.027Z,23.15
2018-03-20T23:46:01.118Z,21.37
2018-03-20T23:48:30.119Z,20.55
2018-03-20T23:51:00.130Z,18.33
2018-03-20T23:53:29.770Z,23.65
2018-03-20T23:55:58.840Z,18.02
